sensor_id;sensor_type;location;lat;lon;timestamp;P1;durP1;ratioP1;P2;durP2;ratioP2
12980;SDS011;6555;50.468;8.480;2023-01-05T00:02:04;0.87;;;0.60;;
12980;SDS011;6555;50.468;8.480;2023-01-05T00:07:07;1.33;;;0.73;;
12980;SDS011;6555;50.468;8.480;2023-01-05T00:12:10;0.97;;;0.50;;
12980;SDS011;6555;50.468;8.480;2023-01-05T00:17:32;1.30;;;0.50;;
12980;SDS011;6555;50.468;8.480;2023-01-05T00:22:55;0.90;;;0.60;;
12980;SDS011;6555;50.468;8.480;2023-01-05T00:27:58;0.40;;;0.40;;
12980;SDS011;6555;50.468;8.480;2023-01-05T00:33:03;1.17;;;0.53;;
12980;SDS011;6555;50.468;8.480;2023-01-05T00:38:10;0.47;;;0.47;;
12980;SDS011;6555;50.468;8.480;2023-01-05T00:43:13;0.80;;;0.50;;
12980;SDS011;6555;50.468;8.480;2023-01-05T00:48:17;1.17;;;0.50;;
12980;SDS011;6555;50.468;8.480;2023-01-05T00:53:20;2.20;;;1.03;;
12980;SDS011;6555;50.468;8.480;2023-01-05T00:58:23;0.90;;;0.70;;
12980;SDS011;6555;50.468;8.480;2023-01-05T01:03:27;2.80;;;1.30;;
12980;SDS011;6555;50.468;8.480;2023-01-05T01:08:31;2.03;;;0.90;;
12980;SDS011;6555;50.468;8.480;2023-01-05T01:13:34;3.07;;;1.40;;
12980;SDS011;6555;50.468;8.480;2023-01-05T01:18:40;4.07;;;1.40;;
12980;SDS011;6555;50.468;8.480;2023-01-05T01:23:44;4.83;;;1.43;;
12980;SDS011;6555;50.468;8.480;2023-01-05T01:28:47;6.20;;;1.80;;
12980;SDS011;6555;50.468;8.480;2023-01-05T01:33:52;2.97;;;1.20;;
12980;SDS011;6555;50.468;8.480;2023-01-05T01:38:55;7.67;;;2.07;;
12980;SDS011;6555;50.468;8.480;2023-01-05T01:43:58;4.37;;;1.97;;
12980;SDS011;6555;50.468;8.480;2023-01-05T01:49:04;7.07;;;2.13;;
12980;SDS011;6555;50.468;8.480;2023-01-05T01:54:12;5.27;;;2.27;;
12980;SDS011;6555;50.468;8.480;2023-01-05T01:59:18;5.60;;;1.83;;
12980;SDS011;6555;50.468;8.480;2023-01-05T02:04:24;4.87;;;1.67;;
12980;SDS011;6555;50.468;8.480;2023-01-05T02:09:28;5.60;;;1.70;;
12980;SDS011;6555;50.468;8.480;2023-01-05T02:14:32;7.67;;;2.27;;
12980;SDS011;6555;50.468;8.480;2023-01-05T02:25:36;6.43;;;2.23;;
12980;SDS011;6555;50.468;8.480;2023-01-05T02:30:58;10.77;;;3.17;;
12980;SDS011;6555;50.468;8.480;2023-01-05T02:36:13;7.80;;;2.00;;
12980;SDS011;6555;50.468;8.480;2023-01-05T02:41:35;5.43;;;2.40;;
12980;SDS011;6555;50.468;8.480;2023-01-05T02:46:43;7.57;;;2.93;;
12980;SDS011;6555;50.468;8.480;2023-01-05T02:51:48;7.20;;;2.20;;
12980;SDS011;6555;50.468;8.480;2023-01-05T02:56:58;9.50;;;2.47;;
12980;SDS011;6555;50.468;8.480;2023-01-05T03:02:08;5.73;;;1.80;;
12980;SDS011;6555;50.468;8.480;2023-01-05T03:07:26;6.37;;;2.10;;
12980;SDS011;6555;50.468;8.480;2023-01-05T03:12:56;8.30;;;2.30;;
12980;SDS011;6555;50.468;8.480;2023-01-05T03:18:25;10.87;;;2.40;;
12980;SDS011;6555;50.468;8.480;2023-01-05T03:23:29;6.37;;;1.87;;
12980;SDS011;6555;50.468;8.480;2023-01-05T03:28:50;9.93;;;2.67;;
12980;SDS011;6555;50.468;8.480;2023-01-05T03:34:21;6.10;;;2.27;;
12980;SDS011;6555;50.468;8.480;2023-01-05T03:39:54;8.07;;;2.60;;
12980;SDS011;6555;50.468;8.480;2023-01-05T03:44:57;8.00;;;2.33;;
12980;SDS011;6555;50.468;8.480;2023-01-05T03:50:03;4.13;;;1.50;;
12980;SDS011;6555;50.468;8.480;2023-01-05T03:55:08;3.93;;;1.60;;
12980;SDS011;6555;50.468;8.480;2023-01-05T04:00:12;3.47;;;1.73;;
12980;SDS011;6555;50.468;8.480;2023-01-05T04:05:20;5.67;;;1.57;;
12980;SDS011;6555;50.468;8.480;2023-01-05T04:10:23;3.10;;;1.77;;
12980;SDS011;6555;50.468;8.480;2023-01-05T04:15:27;5.87;;;2.00;;
12980;SDS011;6555;50.468;8.480;2023-01-05T04:20:33;7.60;;;2.37;;
12980;SDS011;6555;50.468;8.480;2023-01-05T04:25:36;10.50;;;2.17;;
12980;SDS011;6555;50.468;8.480;2023-01-05T04:30:49;4.53;;;1.70;;
12980;SDS011;6555;50.468;8.480;2023-01-05T04:35:55;5.93;;;2.00;;
12980;SDS011;6555;50.468;8.480;2023-01-05T04:41:02;8.37;;;2.53;;
12980;SDS011;6555;50.468;8.480;2023-01-05T04:46:05;7.43;;;2.17;;
12980;SDS011;6555;50.468;8.480;2023-01-05T04:51:11;8.70;;;2.30;;
12980;SDS011;6555;50.468;8.480;2023-01-05T04:56:14;6.70;;;1.80;;
12980;SDS011;6555;50.468;8.480;2023-01-05T05:01:19;6.53;;;2.63;;
12980;SDS011;6555;50.468;8.480;2023-01-05T05:06:27;5.63;;;1.97;;
12980;SDS011;6555;50.468;8.480;2023-01-05T05:11:32;9.00;;;2.37;;
12980;SDS011;6555;50.468;8.480;2023-01-05T05:16:35;5.03;;;2.10;;
12980;SDS011;6555;50.468;8.480;2023-01-05T05:21:41;7.20;;;2.10;;
12980;SDS011;6555;50.468;8.480;2023-01-05T05:26:45;4.67;;;1.80;;
12980;SDS011;6555;50.468;8.480;2023-01-05T05:31:48;5.63;;;1.83;;
12980;SDS011;6555;50.468;8.480;2023-01-05T05:37:07;6.73;;;2.10;;
12980;SDS011;6555;50.468;8.480;2023-01-05T05:42:30;6.70;;;1.73;;
12980;SDS011;6555;50.468;8.480;2023-01-05T05:47:33;12.93;;;2.83;;
12980;SDS011;6555;50.468;8.480;2023-01-05T05:52:38;7.33;;;2.27;;
12980;SDS011;6555;50.468;8.480;2023-01-05T05:57:40;7.27;;;2.40;;
12980;SDS011;6555;50.468;8.480;2023-01-05T06:02:43;7.03;;;2.37;;
12980;SDS011;6555;50.468;8.480;2023-01-05T06:07:48;6.17;;;2.10;;
12980;SDS011;6555;50.468;8.480;2023-01-05T06:12:51;5.70;;;2.10;;
12980;SDS011;6555;50.468;8.480;2023-01-05T06:17:55;7.83;;;2.30;;
12980;SDS011;6555;50.468;8.480;2023-01-05T06:22:59;6.93;;;2.17;;
12980;SDS011;6555;50.468;8.480;2023-01-05T06:28:02;4.37;;;1.97;;
12980;SDS011;6555;50.468;8.480;2023-01-05T06:33:05;5.23;;;2.17;;
12980;SDS011;6555;50.468;8.480;2023-01-05T06:38:09;3.43;;;1.70;;
12980;SDS011;6555;50.468;8.480;2023-01-05T06:43:12;6.80;;;1.93;;
12980;SDS011;6555;50.468;8.480;2023-01-05T06:48:15;6.30;;;1.77;;
12980;SDS011;6555;50.468;8.480;2023-01-05T06:53:19;6.03;;;1.70;;
12980;SDS011;6555;50.468;8.480;2023-01-05T06:58:22;6.80;;;2.10;;
12980;SDS011;6555;50.468;8.480;2023-01-05T07:03:25;4.70;;;1.60;;
12980;SDS011;6555;50.468;8.480;2023-01-05T07:08:30;7.33;;;2.47;;
12980;SDS011;6555;50.468;8.480;2023-01-05T07:13:33;9.57;;;2.57;;
12980;SDS011;6555;50.468;8.480;2023-01-05T07:18:36;4.90;;;1.90;;
12980;SDS011;6555;50.468;8.480;2023-01-05T07:23:41;4.77;;;1.63;;
12980;SDS011;6555;50.468;8.480;2023-01-05T07:28:43;4.40;;;1.70;;
12980;SDS011;6555;50.468;8.480;2023-01-05T07:33:46;7.87;;;1.30;;
12980;SDS011;6555;50.468;8.480;2023-01-05T07:38:51;7.00;;;1.70;;
12980;SDS011;6555;50.468;8.480;2023-01-05T07:43:59;4.37;;;1.60;;
12980;SDS011;6555;50.468;8.480;2023-01-05T07:49:02;4.40;;;1.80;;
12980;SDS011;6555;50.468;8.480;2023-01-05T07:54:07;5.27;;;2.00;;
12980;SDS011;6555;50.468;8.480;2023-01-05T07:59:10;5.17;;;2.13;;
12980;SDS011;6555;50.468;8.480;2023-01-05T08:04:13;7.73;;;2.30;;
12980;SDS011;6555;50.468;8.480;2023-01-05T08:09:17;6.60;;;2.53;;
12980;SDS011;6555;50.468;8.480;2023-01-05T08:14:37;13.87;;;2.77;;
12980;SDS011;6555;50.468;8.480;2023-01-05T08:19:40;7.33;;;2.60;;
12980;SDS011;6555;50.468;8.480;2023-01-05T08:24:45;4.17;;;1.80;;
12980;SDS011;6555;50.468;8.480;2023-01-05T08:29:48;7.93;;;2.30;;
12980;SDS011;6555;50.468;8.480;2023-01-05T08:34:51;6.97;;;1.90;;
12980;SDS011;6555;50.468;8.480;2023-01-05T08:39:57;9.80;;;3.17;;
12980;SDS011;6555;50.468;8.480;2023-01-05T08:45:00;6.53;;;2.50;;
12980;SDS011;6555;50.468;8.480;2023-01-05T08:50:03;7.27;;;2.30;;
12980;SDS011;6555;50.468;8.480;2023-01-05T08:55:08;4.50;;;1.90;;
12980;SDS011;6555;50.468;8.480;2023-01-05T09:00:12;6.47;;;1.87;;
12980;SDS011;6555;50.468;8.480;2023-01-05T09:05:17;8.63;;;2.20;;
12980;SDS011;6555;50.468;8.480;2023-01-05T09:10:22;6.07;;;1.67;;
12980;SDS011;6555;50.468;8.480;2023-01-05T09:15:24;5.87;;;2.27;;
12980;SDS011;6555;50.468;8.480;2023-01-05T09:20:28;6.80;;;2.60;;
12980;SDS011;6555;50.468;8.480;2023-01-05T09:25:41;5.40;;;2.17;;
12980;SDS011;6555;50.468;8.480;2023-01-05T09:30:43;6.73;;;1.83;;
12980;SDS011;6555;50.468;8.480;2023-01-05T09:35:54;3.63;;;1.90;;
12980;SDS011;6555;50.468;8.480;2023-01-05T09:40:59;5.00;;;2.37;;
12980;SDS011;6555;50.468;8.480;2023-01-05T09:46:06;5.57;;;2.30;;
12980;SDS011;6555;50.468;8.480;2023-01-05T09:51:13;7.80;;;2.20;;
12980;SDS011;6555;50.468;8.480;2023-01-05T09:56:21;6.27;;;2.47;;
12980;SDS011;6555;50.468;8.480;2023-01-05T10:01:48;7.57;;;2.07;;
12980;SDS011;6555;50.468;8.480;2023-01-05T10:06:53;8.47;;;2.40;;
12980;SDS011;6555;50.468;8.480;2023-01-05T10:12:03;7.33;;;2.40;;
12980;SDS011;6555;50.468;8.480;2023-01-05T10:17:33;9.07;;;2.73;;
12980;SDS011;6555;50.468;8.480;2023-01-05T10:22:47;7.07;;;2.00;;
12980;SDS011;6555;50.468;8.480;2023-01-05T10:28:00;5.57;;;1.90;;
12980;SDS011;6555;50.468;8.480;2023-01-05T10:33:13;7.60;;;2.20;;
12980;SDS011;6555;50.468;8.480;2023-01-05T10:38:39;7.67;;;1.80;;
12980;SDS011;6555;50.468;8.480;2023-01-05T10:43:56;5.13;;;2.23;;
12980;SDS011;6555;50.468;8.480;2023-01-05T10:49:17;7.50;;;2.50;;
12980;SDS011;6555;50.468;8.480;2023-01-05T10:54:25;3.83;;;1.70;;
12980;SDS011;6555;50.468;8.480;2023-01-05T10:59:42;4.93;;;1.97;;
12980;SDS011;6555;50.468;8.480;2023-01-05T11:04:57;3.47;;;1.50;;
12980;SDS011;6555;50.468;8.480;2023-01-05T11:10:14;7.13;;;2.10;;
12980;SDS011;6555;50.468;8.480;2023-01-05T11:15:23;8.20;;;2.73;;
12980;SDS011;6555;50.468;8.480;2023-01-05T11:20:26;4.87;;;1.77;;
12980;SDS011;6555;50.468;8.480;2023-01-05T11:25:30;6.80;;;2.50;;
12980;SDS011;6555;50.468;8.480;2023-01-05T11:30:58;9.37;;;2.77;;
12980;SDS011;6555;50.468;8.480;2023-01-05T11:36:03;6.33;;;2.60;;
12980;SDS011;6555;50.468;8.480;2023-01-05T11:41:09;7.87;;;2.00;;
12980;SDS011;6555;50.468;8.480;2023-01-05T11:46:15;8.67;;;2.80;;
12980;SDS011;6555;50.468;8.480;2023-01-05T11:56:42;8.30;;;2.50;;
12980;SDS011;6555;50.468;8.480;2023-01-05T12:01:51;8.90;;;2.80;;
12980;SDS011;6555;50.468;8.480;2023-01-05T12:07:08;6.10;;;2.17;;
12980;SDS011;6555;50.468;8.480;2023-01-05T12:12:21;9.47;;;2.77;;
12980;SDS011;6555;50.468;8.480;2023-01-05T12:17:41;9.20;;;2.30;;
12980;SDS011;6555;50.468;8.480;2023-01-05T12:22:56;7.23;;;1.90;;
12980;SDS011;6555;50.468;8.480;2023-01-05T12:28:15;9.83;;;2.43;;
12980;SDS011;6555;50.468;8.480;2023-01-05T12:33:49;8.80;;;2.87;;
12980;SDS011;6555;50.468;8.480;2023-01-05T12:39:21;5.60;;;2.27;;
12980;SDS011;6555;50.468;8.480;2023-01-05T12:50:19;10.53;;;2.43;;
12980;SDS011;6555;50.468;8.480;2023-01-05T12:55:27;8.90;;;2.60;;
12980;SDS011;6555;50.468;8.480;2023-01-05T13:00:39;5.00;;;2.33;;
12980;SDS011;6555;50.468;8.480;2023-01-05T13:05:49;8.17;;;2.40;;
12980;SDS011;6555;50.468;8.480;2023-01-05T13:10:59;4.10;;;1.90;;
12980;SDS011;6555;50.468;8.480;2023-01-05T13:16:07;4.13;;;1.83;;
12980;SDS011;6555;50.468;8.480;2023-01-05T13:21:17;4.20;;;2.10;;
12980;SDS011;6555;50.468;8.480;2023-01-05T13:26:22;5.33;;;1.83;;
12980;SDS011;6555;50.468;8.480;2023-01-05T13:37:15;4.57;;;1.70;;
12980;SDS011;6555;50.468;8.480;2023-01-05T13:42:38;3.13;;;1.60;;
12980;SDS011;6555;50.468;8.480;2023-01-05T13:48:14;3.47;;;1.40;;
12980;SDS011;6555;50.468;8.480;2023-01-05T13:53:47;4.40;;;1.60;;
12980;SDS011;6555;50.468;8.480;2023-01-05T13:58:56;4.37;;;1.60;;
12980;SDS011;6555;50.468;8.480;2023-01-05T14:04:01;6.67;;;1.83;;
12980;SDS011;6555;50.468;8.480;2023-01-05T14:09:07;3.07;;;1.43;;
12980;SDS011;6555;50.468;8.480;2023-01-05T14:14:23;4.73;;;1.60;;
12980;SDS011;6555;50.468;8.480;2023-01-05T14:24:54;2.13;;;1.10;;
12980;SDS011;6555;50.468;8.480;2023-01-05T14:29:58;2.73;;;1.50;;
12980;SDS011;6555;50.468;8.480;2023-01-05T14:35:05;3.07;;;1.47;;
12980;SDS011;6555;50.468;8.480;2023-01-05T14:40:21;4.80;;;1.63;;
12980;SDS011;6555;50.468;8.480;2023-01-05T14:45:30;3.77;;;1.40;;
12980;SDS011;6555;50.468;8.480;2023-01-05T14:50:36;3.13;;;1.33;;
12980;SDS011;6555;50.468;8.480;2023-01-05T15:01:20;5.03;;;1.40;;
12980;SDS011;6555;50.468;8.480;2023-01-05T15:06:29;4.50;;;1.87;;
12980;SDS011;6555;50.468;8.480;2023-01-05T15:11:48;4.30;;;1.90;;
12980;SDS011;6555;50.468;8.480;2023-01-05T15:17:18;4.50;;;1.70;;
12980;SDS011;6555;50.468;8.480;2023-01-05T15:22:37;4.80;;;1.30;;
12980;SDS011;6555;50.468;8.480;2023-01-05T15:33:32;4.47;;;1.33;;
12980;SDS011;6555;50.468;8.480;2023-01-05T15:38:43;4.10;;;1.50;;
12980;SDS011;6555;50.468;8.480;2023-01-05T15:43:47;3.30;;;1.47;;
12980;SDS011;6555;50.468;8.480;2023-01-05T15:48:53;4.20;;;1.80;;
12980;SDS011;6555;50.468;8.480;2023-01-05T15:53:57;4.17;;;2.10;;
12980;SDS011;6555;50.468;8.480;2023-01-05T15:59:01;5.73;;;2.00;;
12980;SDS011;6555;50.468;8.480;2023-01-05T16:04:07;2.87;;;1.60;;
12980;SDS011;6555;50.468;8.480;2023-01-05T16:09:22;5.77;;;1.93;;
12980;SDS011;6555;50.468;8.480;2023-01-05T16:14:29;3.37;;;1.53;;
12980;SDS011;6555;50.468;8.480;2023-01-05T16:19:38;4.57;;;1.30;;
12980;SDS011;6555;50.468;8.480;2023-01-05T16:24:48;4.43;;;1.67;;
12980;SDS011;6555;50.468;8.480;2023-01-05T16:30:11;6.73;;;1.90;;
12980;SDS011;6555;50.468;8.480;2023-01-05T16:35:21;6.80;;;1.97;;
12980;SDS011;6555;50.468;8.480;2023-01-05T16:40:25;4.47;;;2.40;;
12980;SDS011;6555;50.468;8.480;2023-01-05T16:45:29;6.20;;;2.20;;
12980;SDS011;6555;50.468;8.480;2023-01-05T16:56:11;5.00;;;1.70;;
12980;SDS011;6555;50.468;8.480;2023-01-05T17:01:24;6.07;;;2.13;;
12980;SDS011;6555;50.468;8.480;2023-01-05T17:06:35;5.10;;;2.30;;
12980;SDS011;6555;50.468;8.480;2023-01-05T17:11:39;4.93;;;2.40;;
12980;SDS011;6555;50.468;8.480;2023-01-05T17:16:42;10.83;;;3.00;;
12980;SDS011;6555;50.468;8.480;2023-01-05T17:21:50;8.07;;;2.60;;
12980;SDS011;6555;50.468;8.480;2023-01-05T17:26:57;5.73;;;2.00;;
12980;SDS011;6555;50.468;8.480;2023-01-05T17:32:00;5.67;;;2.30;;
12980;SDS011;6555;50.468;8.480;2023-01-05T17:37:05;10.30;;;2.87;;
12980;SDS011;6555;50.468;8.480;2023-01-05T17:42:08;5.77;;;2.30;;
12980;SDS011;6555;50.468;8.480;2023-01-05T17:47:28;8.00;;;2.80;;
12980;SDS011;6555;50.468;8.480;2023-01-05T17:52:33;8.13;;;2.93;;
12980;SDS011;6555;50.468;8.480;2023-01-05T17:57:36;9.37;;;2.53;;
12980;SDS011;6555;50.468;8.480;2023-01-05T18:02:40;9.10;;;3.00;;
12980;SDS011;6555;50.468;8.480;2023-01-05T18:07:44;11.70;;;2.73;;
12980;SDS011;6555;50.468;8.480;2023-01-05T18:12:48;7.67;;;2.87;;
12980;SDS011;6555;50.468;8.480;2023-01-05T18:18:00;8.17;;;2.70;;
12980;SDS011;6555;50.468;8.480;2023-01-05T18:23:05;6.50;;;2.23;;
12980;SDS011;6555;50.468;8.480;2023-01-05T18:28:08;5.93;;;2.27;;
12980;SDS011;6555;50.468;8.480;2023-01-05T18:33:13;6.23;;;2.27;;
12980;SDS011;6555;50.468;8.480;2023-01-05T18:38:18;8.33;;;2.40;;
12980;SDS011;6555;50.468;8.480;2023-01-05T18:43:21;8.67;;;2.53;;
12980;SDS011;6555;50.468;8.480;2023-01-05T18:48:24;5.33;;;1.60;;
12980;SDS011;6555;50.468;8.480;2023-01-05T18:53:28;4.70;;;1.90;;
12980;SDS011;6555;50.468;8.480;2023-01-05T18:58:34;4.13;;;1.90;;
12980;SDS011;6555;50.468;8.480;2023-01-05T19:03:40;5.07;;;1.50;;
12980;SDS011;6555;50.468;8.480;2023-01-05T19:09:04;5.50;;;1.90;;
12980;SDS011;6555;50.468;8.480;2023-01-05T19:14:09;5.90;;;1.40;;
12980;SDS011;6555;50.468;8.480;2023-01-05T19:19:12;2.23;;;1.43;;
12980;SDS011;6555;50.468;8.480;2023-01-05T19:24:18;4.20;;;1.60;;
12980;SDS011;6555;50.468;8.480;2023-01-05T19:29:22;3.77;;;1.43;;
12980;SDS011;6555;50.468;8.480;2023-01-05T19:34:25;2.43;;;1.20;;
12980;SDS011;6555;50.468;8.480;2023-01-05T19:39:29;6.40;;;1.83;;
12980;SDS011;6555;50.468;8.480;2023-01-05T19:44:32;3.53;;;1.63;;
12980;SDS011;6555;50.468;8.480;2023-01-05T19:49:35;5.17;;;1.90;;
12980;SDS011;6555;50.468;8.480;2023-01-05T19:54:40;4.40;;;1.43;;
12980;SDS011;6555;50.468;8.480;2023-01-05T19:59:43;3.50;;;1.17;;
12980;SDS011;6555;50.468;8.480;2023-01-05T20:04:46;3.40;;;1.40;;
12980;SDS011;6555;50.468;8.480;2023-01-05T20:09:50;3.90;;;1.30;;
12980;SDS011;6555;50.468;8.480;2023-01-05T20:14:54;3.30;;;1.23;;
12980;SDS011;6555;50.468;8.480;2023-01-05T20:19:57;1.97;;;1.30;;
12980;SDS011;6555;50.468;8.480;2023-01-05T20:25:01;3.87;;;1.40;;
12980;SDS011;6555;50.468;8.480;2023-01-05T20:30:05;3.57;;;1.30;;
12980;SDS011;6555;50.468;8.480;2023-01-05T20:35:09;3.67;;;1.40;;
12980;SDS011;6555;50.468;8.480;2023-01-05T20:40:15;3.17;;;1.27;;
12980;SDS011;6555;50.468;8.480;2023-01-05T20:45:19;2.50;;;1.30;;
12980;SDS011;6555;50.468;8.480;2023-01-05T20:50:22;2.50;;;1.00;;
12980;SDS011;6555;50.468;8.480;2023-01-05T20:55:26;2.17;;;1.20;;
12980;SDS011;6555;50.468;8.480;2023-01-05T21:00:29;1.67;;;1.10;;
12980;SDS011;6555;50.468;8.480;2023-01-05T21:05:32;1.83;;;0.97;;
12980;SDS011;6555;50.468;8.480;2023-01-05T21:10:36;1.13;;;0.90;;
12980;SDS011;6555;50.468;8.480;2023-01-05T21:15:39;2.10;;;1.00;;
12980;SDS011;6555;50.468;8.480;2023-01-05T21:20:42;0.70;;;0.70;;
12980;SDS011;6555;50.468;8.480;2023-01-05T21:25:47;1.70;;;0.90;;
12980;SDS011;6555;50.468;8.480;2023-01-05T21:31:08;1.47;;;0.83;;
12980;SDS011;6555;50.468;8.480;2023-01-05T21:36:13;1.43;;;1.03;;
12980;SDS011;6555;50.468;8.480;2023-01-05T21:41:18;2.80;;;1.03;;
12980;SDS011;6555;50.468;8.480;2023-01-05T21:46:42;1.57;;;0.80;;
12980;SDS011;6555;50.468;8.480;2023-01-05T21:51:45;1.43;;;0.80;;
12980;SDS011;6555;50.468;8.480;2023-01-05T21:57:07;1.00;;;0.87;;
12980;SDS011;6555;50.468;8.480;2023-01-05T22:02:11;2.17;;;0.87;;
12980;SDS011;6555;50.468;8.480;2023-01-05T22:07:15;1.97;;;0.90;;
12980;SDS011;6555;50.468;8.480;2023-01-05T22:12:19;1.33;;;0.70;;
12980;SDS011;6555;50.468;8.480;2023-01-05T22:17:22;0.87;;;0.60;;
12980;SDS011;6555;50.468;8.480;2023-01-05T22:22:25;1.67;;;0.80;;
12980;SDS011;6555;50.468;8.480;2023-01-05T22:27:30;1.10;;;0.70;;
12980;SDS011;6555;50.468;8.480;2023-01-05T22:32:33;1.87;;;0.90;;
12980;SDS011;6555;50.468;8.480;2023-01-05T22:37:36;1.13;;;0.70;;
12980;SDS011;6555;50.468;8.480;2023-01-05T22:42:40;1.07;;;0.80;;
12980;SDS011;6555;50.468;8.480;2023-01-05T22:47:43;0.93;;;0.60;;
12980;SDS011;6555;50.468;8.480;2023-01-05T22:52:46;0.80;;;0.60;;
12980;SDS011;6555;50.468;8.480;2023-01-05T22:57:51;1.53;;;0.73;;
12980;SDS011;6555;50.468;8.480;2023-01-05T23:02:54;0.83;;;0.73;;
12980;SDS011;6555;50.468;8.480;2023-01-05T23:07:57;1.23;;;0.60;;
12980;SDS011;6555;50.468;8.480;2023-01-05T23:13:01;0.70;;;0.70;;
12980;SDS011;6555;50.468;8.480;2023-01-05T23:18:05;0.70;;;0.70;;
12980;SDS011;6555;50.468;8.480;2023-01-05T23:23:08;0.80;;;0.40;;
12980;SDS011;6555;50.468;8.480;2023-01-05T23:28:12;0.50;;;0.50;;
12980;SDS011;6555;50.468;8.480;2023-01-05T23:33:19;0.60;;;0.60;;
12980;SDS011;6555;50.468;8.480;2023-01-05T23:38:24;0.80;;;0.80;;
12980;SDS011;6555;50.468;8.480;2023-01-05T23:43:29;0.67;;;0.50;;
12980;SDS011;6555;50.468;8.480;2023-01-05T23:48:32;0.83;;;0.67;;
12980;SDS011;6555;50.468;8.480;2023-01-05T23:53:36;0.70;;;0.70;;
12980;SDS011;6555;50.468;8.480;2023-01-05T23:58:40;0.53;;;0.53;;
